Terminal Aerodrome Forecast
Issued by NWS Paducah, KY

Home | Current Version | Previous Version | Text Only | Print | Product List | Glossary On
Versions: 1 2 3 4 5 6 7 8 9 10 11 12 13 14 15 16 17 18 19 20 21 22 23 24 25 26
319
FTUS43 KPAH 171553 AAB
TAFEVV
TAF AMD
KEVV 171553Z 1716/1812 12006KT 3/4SM -SN BR OVC025
      TEMPO 1716/1718 1 1/2SM -RASN BR
     FM171900 19006KT 6SM -RA OVC015
     FM172100 21007KT P6SM VCSH OVC008
     FM180200 24005KT P6SM BKN090
     FM181000 VRB03KT 1/2SM FG SCT060=

USA.gov is the U.S. government's official web portal to all federal, state and local government web resources and services.